createdAt,value
2023-01-06T06:01:41.494Z,6.65
2023-01-06T06:04:08.488Z,5.03
2023-01-06T06:06:35.133Z,4.60
2023-01-06T06:09:05.308Z,6.40
2023-01-06T06:11:31.901Z,3.80
2023-01-06T06:13:59.748Z,5.15
2023-01-06T06:16:28.369Z,7.30
2023-01-06T06:18:58.290Z,7.82
2023-01-06T06:21:27.528Z,2.67
2023-01-06T06:23:56.604Z,5.93
2023-01-06T06:26:23.930Z,7.27
2023-01-06T06:28:51.179Z,5.25
2023-01-06T06:31:20.606Z,5.97
2023-01-06T06:36:16.378Z,6.95
2023-01-06T06:38:44.566Z,3.30
2023-01-06T06:41:11.794Z,3.15
2023-01-06T06:43:39.705Z,2.95
2023-01-06T06:46:06.907Z,3.45
2023-01-06T06:48:34.487Z,5.40
2023-01-06T06:51:07.168Z,4.63
2023-01-06T06:53:35.483Z,6.30
2023-01-06T06:56:02.987Z,4.78
2023-01-06T06:58:30.490Z,4.47
2023-01-06T07:00:57.246Z,3.45
2023-01-06T07:03:25.515Z,5.00
2023-01-06T07:05:52.740Z,1.90
2023-01-06T07:08:19.979Z,4.90
2023-01-06T07:10:46.536Z,2.42
2023-01-06T07:13:13.193Z,3.53
2023-01-06T07:15:40.384Z,4.68
2023-01-06T07:18:07.173Z,4.28
2023-01-06T07:20:36.247Z,2.80
2023-01-06T07:23:03.148Z,5.65
2023-01-06T07:25:30.498Z,3.70
2023-01-06T07:27:59.465Z,5.60
2023-01-06T07:30:27.693Z,4.82
2023-01-06T07:32:54.326Z,2.35
2023-01-06T07:35:21.376Z,5.07
2023-01-06T07:37:48.024Z,3.63
2023-01-06T07:40:15.134Z,2.03
2023-01-06T07:42:41.654Z,2.47
2023-01-06T07:45:09.395Z,4.60
2023-01-06T07:47:36.240Z,3.22
2023-01-06T07:50:04.965Z,3.08
2023-01-06T07:52:32.162Z,2.28
2023-01-06T07:54:59.829Z,3.90
2023-01-06T07:57:28.083Z,4.63
2023-01-06T07:59:56.076Z,9.70
2023-01-06T08:02:23.617Z,2.97
2023-01-06T08:04:50.718Z,5.90
2023-01-06T08:07:17.894Z,3.80
2023-01-06T08:09:45.124Z,2.75
2023-01-06T08:12:12.221Z,8.63
2023-01-06T08:14:39.494Z,2.92
2023-01-06T08:17:06.287Z,2.67
2023-01-06T08:19:33.904Z,3.70
2023-01-06T08:22:00.506Z,2.80
2023-01-06T08:24:28.324Z,4.80
2023-01-06T08:26:54.967Z,3.38
2023-01-06T08:29:22.149Z,4.65
2023-01-06T08:31:49.461Z,1.65
2023-01-06T08:34:18.110Z,2.58
2023-01-06T08:36:45.274Z,4.35
2023-01-06T08:39:13.726Z,3.42
2023-01-06T08:41:41.149Z,3.25
2023-01-06T08:44:08.144Z,4.00
2023-01-06T08:46:34.825Z,2.30
2023-01-06T08:49:02.057Z,3.17
2023-01-06T08:51:29.198Z,1.77
2023-01-06T08:53:56.552Z,3.47
2023-01-06T08:56:25.630Z,2.58
2023-01-06T08:58:59.080Z,5.90
2023-01-06T09:01:29.369Z,3.42
2023-01-06T09:03:59.011Z,1.95
2023-01-06T09:06:26.570Z,4.25
2023-01-06T09:08:53.916Z,4.40
2023-01-06T09:11:20.545Z,2.30
2023-01-06T09:13:48.206Z,1.90
2023-01-06T09:16:14.888Z,2.88
2023-01-06T09:18:47.727Z,2.72
2023-01-06T09:21:14.361Z,2.10
2023-01-06T09:23:41.581Z,3.70
2023-01-06T09:26:08.911Z,2.85
2023-01-06T09:28:36.253Z,3.45
2023-01-06T09:31:02.912Z,1.98
2023-01-06T09:33:30.072Z,1.85
2023-01-06T09:35:57.252Z,3.83
2023-01-06T09:38:23.813Z,6.65
2023-01-06T09:41:18.034Z,4.03
2023-01-06T09:44:13.070Z,2.85
2023-01-06T09:46:44.424Z,2.80
2023-01-06T09:49:20.798Z,2.13
2023-01-06T09:51:47.987Z,2.45
2023-01-06T09:54:31.661Z,3.47
2023-01-06T09:57:10.870Z,1.67
2023-01-06T09:59:45.843Z,2.53
2023-01-06T10:02:22.586Z,2.72
2023-01-06T10:04:49.786Z,2.47
2023-01-06T10:07:43.106Z,2.97
2023-01-06T10:10:32.123Z,2.60
2023-01-06T10:13:06.299Z,1.97
2023-01-06T10:15:48.971Z,6.68
2023-01-06T10:18:40.900Z,2.83
2023-01-06T10:21:22.407Z,2.70
2023-01-06T10:23:55.531Z,2.92
2023-01-06T10:26:29.729Z,3.28
2023-01-06T10:29:14.431Z,6.68
2023-01-06T10:31:45.079Z,3.47
2023-01-06T10:34:20.780Z,5.07
2023-01-06T10:37:01.181Z,3.00
2023-01-06T10:39:30.477Z,3.92
2023-01-06T10:42:57.586Z,3.03
2023-01-06T10:45:32.735Z,6.60
2023-01-06T10:48:01.889Z,3.53
2023-01-06T10:50:28.546Z,4.63
2023-01-06T10:52:55.438Z,3.85
2023-01-06T10:55:25.426Z,3.47
2023-01-06T11:00:22.984Z,5.88
2023-01-06T11:02:52.586Z,3.92
2023-01-06T11:05:23.565Z,6.32
2023-01-06T11:07:58.338Z,5.25
2023-01-06T11:10:28.688Z,4.30
2023-01-06T11:12:58.528Z,4.07
2023-01-06T11:15:38.483Z,6.00
2023-01-06T11:20:45.695Z,4.60
2023-01-06T11:23:21.069Z,5.38
2023-01-06T11:26:15.879Z,6.15
2023-01-06T11:28:47.919Z,7.05
2023-01-06T11:31:14.493Z,6.15
2023-01-06T11:33:49.392Z,6.72
2023-01-06T11:36:16.568Z,6.05
2023-01-06T11:38:47.570Z,7.68
2023-01-06T11:41:25.740Z,7.55
2023-01-06T11:43:56.923Z,7.20
2023-01-06T11:46:25.431Z,8.40
2023-01-06T11:49:03.136Z,6.37
2023-01-06T11:51:41.903Z,7.03
2023-01-06T11:54:24.697Z,6.85
2023-01-06T11:57:08.789Z,7.88
2023-01-06T11:59:56.450Z,7.53
2023-01-06T12:02:30.545Z,5.13
2023-01-06T12:05:01.509Z,7.07
2023-01-06T12:07:51.057Z,6.93
2023-01-06T12:10:32.055Z,6.03
2023-01-06T12:12:58.955Z,9.32
2023-01-06T12:15:29.509Z,6.00
2023-01-06T12:18:16.462Z,7.03
2023-01-06T12:20:48.799Z,7.72
2023-01-06T12:23:29.032Z,5.72
2023-01-06T12:26:03.836Z,6.85
2023-01-06T12:28:40.527Z,6.05
2023-01-06T12:31:17.033Z,6.68
2023-01-06T12:33:53.554Z,6.90
2023-01-06T12:36:33.546Z,10.25
2023-01-06T12:41:58.650Z,9.50
2023-01-06T12:44:47.799Z,7.93
2023-01-06T12:47:23.543Z,5.90
2023-01-06T12:50:18.212Z,7.10
2023-01-06T12:52:54.507Z,5.78
2023-01-06T12:55:47.478Z,8.63
2023-01-06T12:58:35.333Z,6.60
2023-01-06T13:01:13.654Z,6.05
2023-01-06T13:04:15.628Z,6.10
2023-01-06T13:06:53.719Z,6.20
2023-01-06T13:09:31.132Z,5.88
2023-01-06T13:12:27.122Z,5.95
2023-01-06T13:15:06.123Z,5.90
2023-01-06T13:17:55.320Z,5.35
2023-01-06T13:20:33.045Z,6.72
2023-01-06T13:23:33.465Z,6.20
2023-01-06T13:26:24.817Z,15.15
2023-01-06T13:29:14.536Z,7.60
2023-01-06T13:31:44.609Z,6.20
2023-01-06T13:34:29.815Z,6.38
2023-01-06T13:37:24.637Z,8.00
2023-01-06T13:40:29.541Z,6.30
2023-01-06T13:43:06.094Z,6.30
2023-01-06T13:45:43.244Z,6.28
2023-01-06T13:48:18.464Z,5.70
2023-01-06T13:50:45.861Z,7.80
2023-01-06T13:53:24.078Z,8.73
2023-01-06T13:56:33.119Z,6.47
2023-01-06T13:59:25.428Z,8.30
2023-01-06T14:01:52.890Z,6.28
2023-01-06T14:04:29.089Z,7.45
2023-01-06T14:06:56.000Z,9.48
2023-01-06T14:09:23.285Z,6.32
2023-01-06T14:11:51.050Z,6.68
2023-01-06T14:14:30.445Z,5.90
2023-01-06T14:19:37.873Z,9.50
2023-01-06T14:22:23.292Z,8.02
2023-01-06T14:24:56.183Z,7.35
2023-01-06T14:27:49.078Z,5.40
2023-01-06T14:30:24.338Z,6.60
2023-01-06T14:32:51.443Z,10.77
2023-01-06T14:35:22.624Z,8.57
2023-01-06T14:38:03.378Z,9.60
2023-01-06T14:40:40.486Z,7.20
2023-01-06T14:43:53.879Z,7.88
2023-01-06T14:46:26.535Z,8.10
2023-01-06T14:48:59.943Z,9.57
2023-01-06T14:51:27.063Z,9.43
2023-01-06T14:53:59.145Z,11.63
2023-01-06T14:56:29.159Z,8.68
2023-01-06T14:59:09.823Z,8.60
2023-01-06T15:01:39.325Z,8.77
2023-01-06T15:04:19.823Z,10.73
2023-01-06T15:06:56.933Z,11.35
2023-01-06T15:09:24.198Z,11.55
2023-01-06T15:11:50.943Z,9.50
2023-01-06T15:14:33.026Z,12.25
2023-01-06T15:17:06.573Z,11.23
2023-01-06T15:19:35.122Z,8.35
2023-01-06T15:22:07.483Z,7.88
2023-01-06T15:24:39.741Z,12.25
2023-01-06T15:27:08.696Z,10.32
2023-01-06T15:29:35.940Z,10.65
2023-01-06T15:32:04.526Z,10.68
2023-01-06T15:34:42.930Z,9.05
2023-01-06T15:37:18.304Z,9.63
2023-01-06T15:39:46.356Z,9.15
2023-01-06T15:42:15.101Z,9.23
2023-01-06T15:44:54.624Z,10.02
2023-01-06T15:47:38.408Z,10.05
2023-01-06T15:50:17.103Z,8.27
2023-01-06T15:52:57.329Z,8.27
2023-01-06T15:55:32.337Z,7.03
2023-01-06T15:58:04.129Z,10.85
2023-01-06T16:00:44.852Z,7.95
2023-01-06T16:03:23.248Z,9.32
2023-01-06T16:06:00.118Z,7.57
2023-01-06T16:08:30.299Z,13.93
2023-01-06T16:11:46.211Z,9.63
2023-01-06T16:14:35.815Z,10.70
2023-01-06T16:19:48.727Z,12.88
2023-01-06T16:22:49.935Z,12.88
2023-01-06T16:25:33.377Z,19.48
2023-01-06T16:28:03.255Z,19.88
2023-01-06T16:30:36.961Z,19.25
2023-01-06T16:33:04.477Z,15.23
2023-01-06T16:35:33.638Z,10.75
2023-01-06T16:38:00.689Z,14.63
2023-01-06T16:40:30.258Z,21.42
2023-01-06T16:43:00.251Z,19.83
2023-01-06T16:45:44.474Z,17.10
2023-01-06T16:48:16.507Z,17.90
2023-01-06T16:50:54.957Z,13.18
2023-01-06T16:53:22.998Z,12.10
2023-01-06T16:55:57.812Z,12.35
2023-01-06T16:58:27.508Z,11.98
2023-01-06T17:00:56.787Z,11.38
2023-01-06T17:03:28.526Z,11.27
2023-01-06T17:05:56.256Z,12.43
2023-01-06T17:08:29.815Z,14.00
2023-01-06T17:10:57.371Z,12.27
2023-01-06T17:13:36.527Z,11.55
2023-01-06T17:16:09.862Z,12.60
2023-01-06T17:18:45.906Z,11.82
2023-01-06T17:21:16.757Z,15.38
2023-01-06T17:23:55.777Z,19.50
2023-01-06T17:26:24.457Z,12.45
2023-01-06T17:28:54.113Z,15.40
2023-01-06T17:31:32.711Z,26.58
2023-01-06T17:34:10.395Z,29.00
2023-01-06T17:36:42.444Z,24.45
2023-01-06T17:39:37.198Z,25.00
2023-01-06T17:42:12.893Z,14.50
2023-01-06T17:44:45.844Z,13.15
2023-01-06T17:47:28.109Z,14.80
2023-01-06T17:49:57.717Z,9.20
2023-01-06T17:52:30.494Z,13.30
2023-01-06T17:55:20.629Z,8.88
2023-01-06T17:57:47.545Z,11.68
2023-01-06T18:00:17.051Z,8.95
2023-01-06T18:03:05.248Z,7.88
2023-01-06T18:05:35.627Z,8.40
2023-01-06T18:08:05.256Z,7.70
2023-01-06T18:10:37.868Z,11.57
2023-01-06T18:13:16.246Z,8.60
2023-01-06T18:15:48.347Z,8.43
2023-01-06T18:18:28.083Z,8.98
2023-01-06T18:21:13.945Z,7.55
2023-01-06T18:23:42.503Z,8.65
2023-01-06T18:26:27.755Z,7.85
2023-01-06T18:28:56.742Z,6.60
2023-01-06T18:31:24.399Z,6.60
2023-01-06T18:33:51.252Z,7.28
2023-01-06T18:36:18.542Z,7.38
2023-01-06T18:38:45.348Z,5.82
2023-01-06T18:41:13.668Z,7.28
2023-01-06T18:43:42.840Z,6.72
2023-01-06T18:46:18.054Z,8.88
2023-01-06T18:48:45.452Z,6.90
2023-01-06T18:51:25.210Z,8.50
2023-01-06T18:53:52.475Z,9.82
2023-01-06T18:56:22.996Z,9.93
2023-01-06T18:58:59.753Z,10.57
2023-01-06T19:01:46.879Z,10.23
2023-01-06T19:04:19.103Z,12.82
2023-01-06T19:07:15.530Z,14.02
2023-01-06T19:09:45.618Z,9.65
2023-01-06T19:12:32.762Z,9.65
2023-01-06T19:15:24.313Z,8.88
2023-01-06T19:17:51.937Z,13.75
2023-01-06T19:20:27.036Z,10.65
2023-01-06T19:22:55.236Z,11.73
2023-01-06T19:25:40.893Z,12.07
2023-01-06T19:28:26.799Z,15.88
2023-01-06T19:30:55.690Z,15.52
2023-01-06T19:33:53.230Z,13.30
2023-01-06T19:36:35.112Z,12.38
2023-01-06T19:39:15.124Z,12.73
2023-01-06T19:41:42.826Z,14.32
2023-01-06T19:44:13.662Z,15.20
2023-01-06T19:46:46.743Z,12.27
2023-01-06T19:49:16.838Z,13.38
2023-01-06T19:51:44.232Z,11.23
2023-01-06T19:54:10.768Z,13.43
2023-01-06T19:56:41.423Z,11.90
2023-01-06T19:59:25.556Z,10.73
2023-01-06T20:02:07.940Z,11.85
2023-01-06T20:04:35.060Z,10.35
2023-01-06T20:07:02.911Z,12.40
2023-01-06T20:09:33.216Z,11.40
2023-01-06T20:12:00.946Z,11.98
2023-01-06T20:14:27.673Z,10.82
2023-01-06T20:16:55.061Z,11.15
2023-01-06T20:19:21.782Z,13.18
2023-01-06T20:21:49.243Z,12.60
2023-01-06T20:24:15.879Z,11.38
2023-01-06T20:26:43.229Z,12.23
2023-01-06T20:29:09.846Z,12.15
2023-01-06T20:31:37.208Z,13.20
2023-01-06T20:34:04.332Z,16.70
2023-01-06T20:36:31.529Z,14.35
2023-01-06T20:38:58.461Z,14.15
2023-01-06T20:41:25.867Z,14.88
2023-01-06T20:43:52.435Z,13.95
2023-01-06T20:46:19.712Z,17.17
2023-01-06T20:48:47.724Z,16.90
2023-01-06T20:51:15.089Z,14.88
2023-01-06T20:53:41.679Z,15.30
2023-01-06T20:56:08.972Z,18.25
2023-01-06T20:58:35.623Z,16.33
2023-01-06T21:01:02.953Z,14.35
2023-01-06T21:03:29.534Z,15.18
2023-01-06T21:05:56.699Z,14.93
2023-01-06T21:08:23.277Z,14.85
2023-01-06T21:10:50.543Z,16.92
2023-01-06T21:13:17.112Z,15.07
2023-01-06T21:15:44.361Z,14.02
2023-01-06T21:18:10.888Z,14.60
2023-01-06T21:20:38.112Z,14.50
2023-01-06T21:23:04.723Z,18.30
2023-01-06T21:25:31.921Z,16.15
2023-01-06T21:27:58.884Z,17.05
